Time;durP1;ratioP1;P1;durP2;ratioP2;P2;SDS_P1;SDS_P2;PMS_P1;PMS_P2;Temp;Humidity;BMP_temperature;BMP_pressure;BME280_temperature;BME280_humidity;BME280_pressure;Samples;Min_cycle;Max_cycle;Signal;HPM_P1;HPM_P2
2022/06/07 00:02:24;;;;;;;4.27;3.37;;;;;;;12.32;100.00;101114.59;5011604;28;20468;-45
2022/06/07 00:04:53;;;;;;;3.13;2.63;;;;;;;12.28;100.00;101121.38;5011749;28;20530;-46
2022/06/07 00:07:22;;;;;;;3.83;2.60;;;;;;;12.27;100.00;101116.22;5010985;28;20452;-45
2022/06/07 00:09:50;;;;;;;3.53;3.23;;;;;;;12.24;100.00;101117.47;5011900;28;20429;-45
2022/06/07 00:12:20;;;;;;;3.30;3.10;;;;;;;12.17;100.00;101116.59;5011621;28;20436;-45
2022/06/07 00:14:47;;;;;;;3.50;3.30;;;;;;;12.17;100.00;101111.25;5011731;28;20456;-47
2022/06/07 00:17:15;;;;;;;3.17;3.07;;;;;;;12.17;100.00;101113.91;5011195;28;20441;-45
2022/06/07 00:19:43;;;;;;;3.80;3.50;;;;;;;12.16;100.00;101117.59;5011382;28;20425;-44
2022/06/07 00:22:11;;;;;;;4.23;3.23;;;;;;;12.14;100.00;101111.63;5011634;28;20459;-44
2022/06/07 00:24:39;;;;;;;3.60;3.40;;;;;;;12.13;100.00;101112.66;5011461;28;20935;-46
2022/06/07 00:27:07;;;;;;;3.37;3.17;;;;;;;12.13;100.00;101107.31;5011653;28;20449;-45
2022/06/07 00:29:37;;;;;;;5.50;3.47;;;;;;;12.11;100.00;101110.19;5011158;28;20477;-44
2022/06/07 00:32:06;;;;;;;3.73;3.43;;;;;;;12.11;100.00;101117.38;5011211;28;20443;-45
2022/06/07 00:34:34;;;;;;;4.43;4.13;;;;;;;12.13;100.00;101108.13;5011421;28;20445;-45
2022/06/07 00:37:02;;;;;;;4.80;4.20;;;;;;;12.14;100.00;101106.28;5011564;28;20449;-47
2022/06/07 00:39:30;;;;;;;4.40;4.00;;;;;;;12.12;100.00;101108.34;5011063;28;20469;-44
2022/06/07 00:41:58;;;;;;;4.77;4.40;;;;;;;12.11;100.00;101110.19;5011437;28;20440;-45
2022/06/07 00:44:34;;;;;;;4.37;4.07;;;;;;;12.09;100.00;101101.56;5011572;28;20534;-44
2022/06/07 00:47:08;;;;;;;3.80;3.57;;;;;;;12.08;100.00;101101.72;5011227;28;20480;-45
2022/06/07 00:49:42;;;;;;;5.70;4.10;;;;;;;12.09;100.00;101101.56;5011027;28;20463;-45
2022/06/07 00:52:10;;;;;;;6.90;4.20;;;;;;;12.09;100.00;101100.72;5011395;28;20435;-45
2022/06/07 00:54:38;;;;;;;4.63;3.60;;;;;;;12.10;100.00;101097.84;5011946;28;20948;-47
2022/06/07 00:57:07;;;;;;;4.40;4.10;;;;;;;12.11;100.00;101096.00;5014972;28;20445;-45
2022/06/07 00:59:35;;;;;;;6.50;4.73;;;;;;;12.10;100.00;101092.50;5014353;28;20468;-44
2022/06/07 01:02:05;;;;;;;5.40;4.60;;;;;;;12.11;100.00;101088.81;5014836;28;20443;-44
2022/06/07 01:04:34;;;;;;;10.63;4.70;;;;;;;12.12;100.00;101081.63;5015309;28;20795;-45
2022/06/07 01:12:33;;;;;;;4.10;3.90;;;;;;;12.03;100.00;101067.59;5014638;28;20946;-44
2022/06/07 01:15:01;;;;;;;4.30;4.00;;;;;;;12.05;100.00;101062.88;5014855;28;20437;-45
2022/06/07 01:17:30;;;;;;;4.67;4.27;;;;;;;12.03;100.00;101064.09;5014094;28;20963;-45
2022/06/07 01:19:57;;;;;;;4.83;4.40;;;;;;;12.03;100.00;101061.41;5014639;28;20433;-50
2022/06/07 01:22:26;;;;;;;5.97;5.37;;;;;;;12.04;100.00;101058.53;5014231;28;20433;-46
2022/06/07 01:24:54;;;;;;;5.70;5.13;;;;;;;12.04;100.00;101060.38;5014689;28;20433;-45
2022/06/07 01:27:22;;;;;;;4.97;4.57;;;;;;;12.04;100.00;101055.84;5014036;28;20485;-45
2022/06/07 01:29:50;;;;;;;5.07;4.63;;;;;;;12.01;100.00;101050.06;5014468;28;20437;-45
2022/06/07 01:32:18;;;;;;;4.97;4.57;;;;;;;12.02;100.00;101055.25;5014105;28;20433;-46
2022/06/07 01:34:46;;;;;;;5.53;4.23;;;;;;;12.04;100.00;101050.50;5014069;28;20433;-48
2022/06/07 01:37:17;;;;;;;4.63;4.40;;;;;;;12.05;100.00;101044.16;5013923;28;20810;-45
2022/06/07 01:42:31;;;;;;;5.00;4.60;;;;;;;12.05;100.00;101044.16;5014232;28;20437;-46
2022/06/07 01:44:59;;;;;;;5.50;5.00;;;;;;;12.03;100.00;101045.38;5014156;28;20814;-46
2022/06/07 01:47:29;;;;;;;3.73;3.53;;;;;;;12.06;100.00;101039.63;5013307;28;20488;-45
2022/06/07 01:49:57;;;;;;;4.43;4.03;;;;;;;12.05;100.00;101036.13;5014004;28;20437;-46
2022/06/07 01:52:28;;;;;;;4.93;4.63;;;;;;;12.06;100.00;101032.44;5013617;28;20531;-48
2022/06/07 01:54:57;;;;;;;4.57;4.27;;;;;;;12.07;100.00;101025.22;5013770;28;20440;-44
2022/06/07 01:57:25;;;;;;;4.83;4.53;;;;;;;12.08;100.00;101030.38;5013389;28;20453;-44
2022/06/07 01:59:52;;;;;;;4.70;4.40;;;;;;;12.08;100.00;101022.38;5013574;28;20443;-46
2022/06/07 02:02:24;;;;;;;4.60;4.30;;;;;;;12.09;100.00;101020.53;5013797;28;20455;-46
2022/06/07 02:04:52;;;;;;;4.67;4.30;;;;;;;12.08;100.00;101016.19;5013953;28;20831;-45
2022/06/07 02:07:20;;;;;;;4.60;4.23;;;;;;;12.08;100.00;101014.34;5012239;28;20842;-45
2022/06/07 02:09:47;;;;;;;5.13;4.73;;;;;;;12.05;100.00;101014.75;5013626;28;20433;-45
2022/06/07 02:12:16;;;;;;;5.03;4.67;;;;;;;12.07;100.00;101019.88;5013251;28;20439;-47
2022/06/07 02:14:44;;;;;;;4.73;4.43;;;;;;;12.05;100.00;101017.41;5013795;28;20425;-47
2022/06/07 02:17:13;;;;;;;5.23;4.73;;;;;;;12.05;100.00;101006.72;5012998;28;20460;-45
2022/06/07 02:19:41;;;;;;;4.30;4.10;;;;;;;12.05;100.00;101000.56;5013542;28;20446;-47
2022/06/07 02:22:09;;;;;;;4.93;4.60;;;;;;;12.02;100.00;100999.09;5013237;28;20456;-48
2022/06/07 02:24:36;;;;;;;6.93;4.17;;;;;;;12.02;100.00;100996.44;5013313;28;20441;-45
2022/06/07 02:27:08;;;;;;;5.00;4.60;;;;;;;12.05;100.00;100998.72;5013067;28;20468;-45
2022/06/07 02:29:40;;;;;;;4.60;4.40;;;;;;;12.05;100.00;100993.38;5012842;28;20469;-47
2022/06/07 02:32:13;;;;;;;4.80;4.40;;;;;;;12.03;100.00;100995.41;5009176;28;20426;-47
2022/06/07 02:34:42;;;;;;;5.70;5.30;;;;;;;12.03;100.00;100990.06;5009933;28;20946;-46
2022/06/07 02:37:11;;;;;;;4.97;4.30;;;;;;;12.03;100.00;100984.72;5012901;28;20571;-49
2022/06/07 02:39:39;;;;;;;6.00;5.33;;;;;;;12.04;100.00;100997.06;5013085;28;20446;-47
2022/06/07 02:42:11;;;;;;;4.80;4.40;;;;;;;12.05;100.00;100992.53;5013053;28;20486;-46
2022/06/07 02:44:40;;;;;;;6.07;5.53;;;;;;;12.06;100.00;100995.03;5013193;28;20433;-45
2022/06/07 02:47:08;;;;;;;4.87;4.57;;;;;;;12.09;100.00;101001.81;5012744;28;20508;-49
2022/06/07 02:49:36;;;;;;;5.40;5.10;;;;;;;12.10;100.00;100987.41;5012421;28;20830;-46
2022/06/07 02:52:04;;;;;;;5.47;5.17;;;;;;;12.13;100.00;100981.66;5012793;28;20429;-45
2022/06/07 02:54:36;;;;;;;5.10;4.77;;;;;;;12.12;100.00;100977.34;5013089;28;20799;-49
2022/06/07 02:57:05;;;;;;;6.30;5.87;;;;;;;12.12;100.00;100974.69;5012827;28;20445;-48
2022/06/07 02:59:32;;;;;;;7.27;6.67;;;;;;;12.14;100.00;100986.00;5012250;28;20461;-47
2022/06/07 03:02:01;;;;;;;7.43;6.90;;;;;;;12.15;100.00;100984.97;5012475;28;20452;-47
2022/06/07 03:04:29;;;;;;;8.07;7.47;;;;;;;12.13;100.00;100977.13;5012558;28;20481;-49
2022/06/07 03:06:57;;;;;;;6.43;5.83;;;;;;;12.15;100.00;100975.09;5012600;28;20566;-45
2022/06/07 03:09:25;;;;;;;7.10;6.60;;;;;;;12.16;100.00;100976.72;5012014;28;20473;-48
2022/06/07 03:11:52;;;;;;;7.50;6.90;;;;;;;12.20;100.00;100977.16;5012303;28;20443;-50
2022/06/07 03:14:20;;;;;;;7.53;6.93;;;;;;;12.18;100.00;100977.34;5012451;28;20443;-46
2022/06/07 03:16:53;;;;;;;6.50;6.00;;;;;;;12.20;100.00;100971.81;5012366;28;20564;-45
2022/06/07 03:19:22;;;;;;;8.23;7.43;;;;;;;12.20;100.00;100969.97;5011776;28;20466;-47
2022/06/07 03:21:50;;;;;;;8.90;8.10;;;;;;;12.23;100.00;100967.91;5012192;28;20947;-46
2022/06/07 03:24:17;;;;;;;8.40;7.80;;;;;;;12.25;100.00;100963.19;5012418;28;20459;-47
2022/06/07 03:26:45;;;;;;;10.50;9.40;;;;;;;12.25;100.00;100960.50;5012277;28;20485;-46
2022/06/07 03:29:12;;;;;;;9.40;8.57;;;;;;;12.27;100.00;100966.50;5011813;28;20468;-45
2022/06/07 03:31:40;;;;;;;11.83;8.60;;;;;;;12.32;100.00;100964.84;5017923;28;20459;-47
2022/06/07 03:34:07;;;;;;;9.90;9.07;;;;;;;12.35;100.00;100963.63;5012295;28;20460;-52
2022/06/07 03:36:36;;;;;;;10.30;9.40;;;;;;;12.37;100.00;100962.38;5012133;28;20463;-46
2022/06/07 03:39:08;;;;;;;8.10;7.50;;;;;;;12.41;100.00;100958.28;5011731;28;20491;-46
2022/06/07 03:41:36;;;;;;;9.27;7.80;;;;;;;12.44;100.00;100957.88;5011970;28;20439;-47
2022/06/07 03:44:05;;;;;;;9.53;8.70;;;;;;;12.46;100.00;100955.81;5012013;28;20441;-47
2022/06/07 03:46:34;;;;;;;9.20;8.40;;;;;;;12.51;100.00;100957.91;5011963;28;20457;-45
2022/06/07 03:49:03;;;;;;;11.77;9.57;;;;;;;12.54;100.00;100954.81;5011262;28;20465;-46
2022/06/07 03:51:32;;;;;;;9.70;8.60;;;;;;;12.56;100.00;100952.75;5011745;28;20436;-48
2022/06/07 03:54:02;;;;;;;9.47;8.53;;;;;;;12.59;100.00;100947.81;5011786;28;20436;-47
2022/06/07 03:56:30;;;;;;;9.80;8.90;;;;;;;12.62;100.00;100947.41;5011240;28;20449;-45
2022/06/07 03:58:57;;;;;;;9.37;8.47;;;;;;;12.63;100.00;100949.03;5009891;28;21013;-45
2022/06/07 04:01:27;;;;;;;10.03;9.00;;;;;;;12.68;100.00;100945.78;5011829;28;20441;-46
2022/06/07 04:03:56;;;;;;;10.07;9.07;;;;;;;12.72;100.00;100949.69;5011959;28;20436;-47
2022/06/07 04:06:26;;;;;;;10.47;9.67;;;;;;;12.78;100.00;100946.19;5011676;28;20970;-49
2022/06/07 04:08:54;;;;;;;9.50;8.70;;;;;;;12.79;100.00;100945.16;5011143;28;20480;-45
2022/06/07 04:11:25;;;;;;;10.30;9.40;;;;;;;12.84;100.00;100950.72;5011765;28;20439;-45
2022/06/07 04:13:55;;;;;;;9.60;8.90;;;;;;;12.88;100.00;100946.59;5011961;28;20444;-48
2022/06/07 04:16:25;;;;;;;10.60;9.67;;;;;;;12.88;100.00;100946.59;5011754;28;20445;-49
2022/06/07 04:18:53;;;;;;;15.87;10.97;;;;;;;12.88;100.00;100951.13;5011240;28;20460;-49
2022/06/07 04:21:22;;;;;;;10.33;9.43;;;;;;;12.92;100.00;100949.69;5011241;28;20922;-52
2022/06/07 04:23:50;;;;;;;9.57;8.77;;;;;;;12.96;100.00;100942.91;5011903;28;20464;-47
2022/06/07 04:26:22;;;;;;;10.83;9.23;;;;;;;13.02;100.00;100942.06;5011720;28;20457;-47
2022/06/07 04:28:50;;;;;;;12.20;9.27;;;;;;;13.05;100.00;100949.69;5011197;28;20465;-49
2022/06/07 04:31:21;;;;;;;11.03;10.13;;;;;;;13.09;100.00;100940.22;5017861;28;20797;-48
2022/06/07 04:33:50;;;;;;;10.50;9.47;;;;;;;13.10;100.00;100941.88;5017432;28;20428;-50
2022/06/07 04:36:19;;;;;;;10.27;9.27;;;;;;;13.12;100.00;100934.44;5015464;28;20449;-50
2022/06/07 04:38:48;;;;;;;10.60;9.20;;;;;;;13.13;100.00;100941.47;5015005;28;20465;-45
2022/06/07 04:41:18;;;;;;;9.87;9.07;;;;;;;13.12;100.00;100940.63;5015011;28;20911;-47
2022/06/07 04:43:48;;;;;;;10.20;9.03;;;;;;;13.11;100.00;100941.66;5015475;28;20447;-45
2022/06/07 04:46:19;;;;;;;9.77;8.90;;;;;;;13.13;100.00;100936.94;5015060;28;20465;-47
2022/06/07 04:48:48;;;;;;;10.83;9.67;;;;;;;13.13;100.00;100928.91;5014616;28;20468;-45
2022/06/07 04:51:18;;;;;;;10.13;9.33;;;;;;;13.15;100.00;100937.53;5015053;28;20436;-48
2022/06/07 04:53:47;;;;;;;11.77;10.77;;;;;;;13.13;100.00;100933.44;5015311;28;20467;-45
2022/06/07 04:56:18;;;;;;;10.73;9.50;;;;;;;13.13;100.00;100928.91;5015003;28;20450;-50
2022/06/07 04:58:46;;;;;;;10.17;9.20;;;;;;;13.08;100.00;100926.00;5014665;28;20464;-50
2022/06/07 05:01:19;;;;;;;12.63;9.90;;;;;;;13.10;100.00;100928.50;5014591;28;20425;-47
2022/06/07 05:03:47;;;;;;;9.57;8.87;;;;;;;13.11;100.00;100930.16;5015039;28;20429;-48
2022/06/07 05:06:20;;;;;;;10.33;9.53;;;;;;;13.13;100.00;100930.75;5014876;28;20826;-45
2022/06/07 05:08:49;;;;;;;10.10;9.20;;;;;;;13.16;100.00;100919.63;5014443;28;20846;-45
2022/06/07 05:11:16;;;;;;;12.67;11.57;;;;;;;13.19;100.00;100924.56;5014657;28;20433;-46
2022/06/07 05:13:44;;;;;;;12.40;11.20;;;;;;;13.17;100.00;100918.59;5014787;28;20801;-47
2022/06/07 05:16:13;;;;;;;12.10;11.10;;;;;;;13.20;100.00;100918.97;5014810;28;20563;-47
2022/06/07 05:18:42;;;;;;;11.27;10.37;;;;;;;13.28;100.00;100909.91;5014292;28;20472;-45
2022/06/07 05:21:12;;;;;;;9.57;8.80;;;;;;;13.32;100.00;100907.66;5014328;28;20437;-45
2022/06/07 05:23:39;;;;;;;11.73;10.53;;;;;;;13.36;100.00;100907.00;5014670;28;20448;-49
2022/06/07 05:26:13;;;;;;;11.53;10.57;;;;;;;13.41;100.00;100909.06;5014283;28;20452;-47
2022/06/07 05:28:42;;;;;;;11.07;10.27;;;;;;;13.46;100.00;100906.56;5014166;28;20479;-45
2022/06/07 05:31:11;;;;;;;10.70;9.80;;;;;;;13.54;100.00;100903.63;5014259;28;20443;-46
2022/06/07 05:33:39;;;;;;;9.53;8.77;;;;;;;13.62;100.00;100895.38;5014342;28;20430;-48
2022/06/07 05:36:09;;;;;;;11.23;10.27;;;;;;;13.71;100.00;100897.59;4994729;28;20454;-47
2022/06/07 05:38:45;;;;;;;9.27;8.57;;;;;;;13.76;100.00;100895.09;4994236;28;20466;-45
2022/06/07 05:41:15;;;;;;;12.03;10.97;;;;;;;13.83;100.00;100893.19;4994338;28;20938;-45
2022/06/07 05:43:42;;;;;;;10.90;10.10;;;;;;;13.88;100.00;100897.94;4994837;28;20549;-47
2022/06/07 05:46:11;;;;;;;10.83;10.03;;;;;;;14.00;100.00;100906.94;4994577;28;20497;-45
2022/06/07 05:48:38;;;;;;;10.80;10.00;;;;;;;14.13;100.00;100906.03;4994047;28;20473;-45
2022/06/07 05:51:07;;;;;;;9.90;9.20;;;;;;;14.28;100.00;100902.00;4994071;28;20434;-49
2022/06/07 05:53:36;;;;;;;10.33;9.43;;;;;;;14.26;100.00;100901.41;4994672;28;20442;-45
2022/06/07 05:56:07;;;;;;;9.43;8.80;;;;;;;14.34;100.00;100894.97;4994532;28;20462;-46
2022/06/07 05:58:35;;;;;;;10.00;9.27;;;;;;;14.35;99.85;100892.09;4993891;28;21021;-50
2022/06/07 06:01:04;;;;;;;11.00;10.20;;;;;;;14.40;99.45;100891.44;4994177;28;20426;-47
2022/06/07 06:03:32;;;;;;;10.53;9.63;;;;;;;14.41;99.57;100887.72;4994156;28;20795;-51
2022/06/07 06:06:00;;;;;;;10.40;9.40;;;;;;;14.43;99.17;100895.53;4994410;28;20453;-45
2022/06/07 06:11:16;;;;;;;9.63;8.80;;;;;;;14.40;99.45;100894.13;4994045;28;20438;-51
2022/06/07 06:13:43;;;;;;;10.03;9.23;;;;;;;14.36;99.55;100893.75;4994060;28;20434;-49
2022/06/07 06:16:15;;;;;;;11.13;10.23;;;;;;;14.37;99.76;100892.69;4993866;28;20462;-48
2022/06/07 06:18:43;;;;;;;9.63;8.83;;;;;;;14.32;99.47;100891.69;4993509;28;20466;-47
2022/06/07 06:21:10;;;;;;;10.20;8.70;;;;;;;14.25;99.68;100890.88;4993843;28;20430;-46
2022/06/07 06:23:39;;;;;;;10.60;9.57;;;;;;;14.27;99.96;100880.78;4993925;28;20445;-47
2022/06/07 06:26:08;;;;;;;10.93;10.13;;;;;;;14.24;100.00;100891.94;4993832;28;20469;-48
2022/06/07 06:28:36;;;;;;;11.60;10.47;;;;;;;14.25;100.00;100888.19;4993185;28;20999;-48
2022/06/07 06:31:06;;;;;;;10.03;8.90;;;;;;;14.29;100.00;100887.56;4996067;28;20434;-47
2022/06/07 06:33:38;;;;;;;9.87;8.97;;;;;;;14.34;100.00;100890.44;5017415;28;20465;-50
2022/06/07 06:36:07;;;;;;;10.30;9.60;;;;;;;14.37;100.00;100883.81;4993685;28;20445;-49
2022/06/07 06:38:35;;;;;;;10.90;10.00;;;;;;;14.40;99.92;100883.38;4993068;28;20468;-48
2022/06/07 06:41:09;;;;;;;10.50;9.70;;;;;;;14.48;100.00;100882.31;4993191;28;20437;-46
2022/06/07 06:43:37;;;;;;;11.27;10.37;;;;;;;14.52;100.00;100886.19;4993709;28;20434;-48
2022/06/07 06:46:05;;;;;;;11.00;10.00;;;;;;;14.46;98.98;100887.06;4993405;28;20461;-47
2022/06/07 06:48:33;;;;;;;11.53;10.30;;;;;;;14.54;99.69;100892.16;4992832;28;20556;-50
2022/06/07 06:51:01;;;;;;;11.10;10.00;;;;;;;14.56;99.54;100890.06;4993224;28;20437;-47
2022/06/07 06:53:28;;;;;;;12.70;11.60;;;;;;;14.53;99.45;100885.97;4992739;28;20438;-50
2022/06/07 06:55:56;;;;;;;12.57;11.57;;;;;;;14.56;99.48;100888.22;4993160;28;20453;-49
2022/06/07 06:58:25;;;;;;;12.30;11.20;;;;;;;14.58;99.47;100890.66;4992866;28;20466;-45
2022/06/07 07:01:04;;;;;;;12.60;11.60;;;;;;;14.53;99.03;100885.16;4993077;28;20438;-47
2022/06/07 07:03:33;;;;;;;11.97;11.07;;;;;;;14.53;99.36;100869.88;4993223;28;20442;-48
2022/06/07 07:06:02;;;;;;;10.57;9.77;;;;;;;14.49;99.27;100868.66;4993234;28;20454;-48
2022/06/07 07:08:30;;;;;;;10.90;10.00;;;;;;;14.50;99.32;100872.16;4992761;28;20461;-45
2022/06/07 07:11:10;;;;;;;12.80;11.80;;;;;;;14.45;99.71;100869.31;4992975;28;20433;-49
2022/06/07 07:13:40;;;;;;;13.60;12.40;;;;;;;14.46;100.00;100870.94;4993065;28;20448;-48
2022/06/07 07:16:10;;;;;;;13.10;11.73;;;;;;;14.58;100.00;100874.56;4992904;28;20832;-50
2022/06/07 07:18:38;;;;;;;12.70;11.70;;;;;;;14.72;100.00;100860.84;4992536;28;20468;-49
2022/06/07 07:21:09;;;;;;;13.87;12.57;;;;;;;14.83;99.58;100862.78;4992959;28;20465;-45
2022/06/07 07:23:38;;;;;;;12.03;11.03;;;;;;;14.97;99.65;100863.47;4992916;28;20450;-46
2022/06/07 07:26:07;;;;;;;11.73;10.60;;;;;;;15.02;98.63;100854.75;4992849;28;20842;-48
2022/06/07 07:28:35;;;;;;;11.67;10.67;;;;;;;15.09;98.37;100853.63;4992264;28;20831;-49
2022/06/07 07:31:06;;;;;;;11.50;10.70;;;;;;;15.16;97.65;100857.06;4994147;28;20429;-48
2022/06/07 07:33:35;;;;;;;12.57;9.83;;;;;;;15.20;96.52;100852.88;5016607;28;20461;-48
2022/06/07 07:36:05;;;;;;;12.33;11.23;;;;;;;15.24;96.45;100853.25;5012327;28;20461;-46
2022/06/07 07:38:33;;;;;;;12.50;11.50;;;;;;;15.19;95.74;100853.94;5011821;28;20464;-45
2022/06/07 07:41:00;;;;;;;11.43;10.53;;;;;;;15.21;96.12;100856.38;5011997;28;20425;-46
2022/06/07 07:43:28;;;;;;;10.43;9.63;;;;;;;15.22;95.80;100849.97;5012115;28;20440;-46
2022/06/07 07:45:56;;;;;;;11.30;10.50;;;;;;;15.30;95.87;100858.56;5011853;28;21033;-46
2022/06/07 07:48:26;;;;;;;12.33;11.33;;;;;;;15.34;95.20;100848.19;5011128;28;20476;-46
2022/06/07 07:50:54;;;;;;;11.37;10.47;;;;;;;15.44;95.43;100851.19;5011540;28;20994;-50
2022/06/07 07:53:21;;;;;;;11.90;10.90;;;;;;;15.57;95.42;100851.03;5012313;28;20432;-48
2022/06/07 07:55:51;;;;;;;11.60;10.77;;;;;;;15.54;93.72;100846.09;5012102;28;20461;-46
2022/06/07 07:58:20;;;;;;;11.80;10.87;;;;;;;15.48;93.09;100850.53;5011492;28;20463;-50
2022/06/07 08:00:49;;;;;;;12.60;11.33;;;;;;;15.47;93.43;100845.38;5011869;28;20457;-49
2022/06/07 08:03:17;;;;;;;12.50;11.60;;;;;;;15.39;93.55;100832.22;5012093;28;20858;-46
2022/06/07 08:05:51;;;;;;;12.63;11.43;;;;;;;15.39;93.29;100840.25;5014619;28;20537;-48
2022/06/07 08:08:18;;;;;;;11.03;10.03;;;;;;;15.56;93.12;100835.13;5015589;28;20461;-49
2022/06/07 08:10:46;;;;;;;11.17;9.93;;;;;;;15.91;92.70;100828.84;5015443;28;20480;-47
2022/06/07 08:13:13;;;;;;;10.47;9.57;;;;;;;16.21;91.10;100822.59;5015780;28;20816;-50
2022/06/07 08:15:42;;;;;;;11.53;10.63;;;;;;;16.58;89.49;100822.19;5016035;28;20432;-48
2022/06/07 08:18:10;;;;;;;10.87;10.00;;;;;;;16.87;87.48;100820.44;5015535;28;20800;-50
2022/06/07 08:20:39;;;;;;;11.37;10.37;;;;;;;17.02;85.68;100814.56;5015437;28;20949;-48
2022/06/07 08:23:10;;;;;;;11.47;10.30;;;;;;;17.06;83.81;100819.25;5015545;28;20448;-50
2022/06/07 08:25:38;;;;;;;10.60;9.70;;;;;;;17.15;84.45;100808.91;5015623;28;20429;-47
2022/06/07 08:28:06;;;;;;;15.67;10.20;;;;;;;17.15;83.70;100819.69;5015313;28;20677;-48
2022/06/07 08:30:36;;;;;;;11.43;10.53;;;;;;;17.18;84.40;100811.13;5015610;28;20476;-46
2022/06/07 08:37:32;;;;;;;11.50;10.57;;;;;;;17.26;82.55;100804.56;5015387;28;20433;-47
2022/06/07 08:38:40;;;;;;;10.53;9.60;;;;;;;18.29;78.64;100807.00;5015047;28;20468;-49
2022/06/07 08:41:08;;;;;;;10.33;9.63;;;;;;;18.55;79.27;100809.06;5015175;28;20435;-51
2022/06/07 08:43:35;;;;;;;9.77;9.10;;;;;;;18.58;77.01;100809.38;5015484;28;20432;-48
2022/06/07 08:46:03;;;;;;;9.63;8.83;;;;;;;18.45;76.50;100806.19;5014951;28;20464;-47
2022/06/07 08:48:33;;;;;;;8.93;8.03;;;;;;;18.37;77.03;100807.41;5014796;28;20468;-46
2022/06/07 08:51:12;;;;;;;12.23;11.03;;;;;;;18.09;77.75;100805.63;5015188;28;20819;-46
2022/06/07 08:53:45;;;;;;;10.97;10.17;;;;;;;17.67;79.67;100807.00;5015256;28;20440;-51
2022/06/07 08:56:17;;;;;;;10.87;9.97;;;;;;;17.29;80.50;100804.91;5015047;28;20454;-48
2022/06/07 08:58:49;;;;;;;10.63;9.83;;;;;;;17.07;81.74;100811.97;5014335;28;20448;-47
2022/06/07 09:01:28;;;;;;;11.80;10.80;;;;;;;17.03;83.52;100819.72;5014932;28;20721;-45
2022/06/07 09:04:08;;;;;;;12.50;11.37;;;;;;;17.07;84.84;100815.50;5015017;28;20432;-48
2022/06/07 09:06:39;;;;;;;13.30;12.00;;;;;;;16.94;85.86;100802.28;5014848;28;20511;-47
2022/06/07 09:09:10;;;;;;;14.97;13.57;;;;;;;16.77;87.34;100805.94;5014541;28;20464;-47
2022/06/07 09:14:31;;;;;;;14.03;12.07;;;;;;;16.71;88.15;100807.69;5014744;28;20459;-48
2022/06/07 09:16:59;;;;;;;13.23;12.20;;;;;;;16.71;87.92;100798.78;5014212;28;20456;-46
2022/06/07 09:19:29;;;;;;;11.33;10.37;;;;;;;16.69;86.16;100798.22;5014054;28;20997;-46
2022/06/07 09:21:59;;;;;;;12.60;11.53;;;;;;;16.57;86.87;100808.97;5014566;28;20440;-46
2022/06/07 09:24:32;;;;;;;11.80;10.80;;;;;;;16.25;87.54;100818.38;5014847;28;20441;-45
2022/06/07 09:27:15;;;;;;;13.83;12.63;;;;;;;16.16;90.00;100822.47;5014580;28;20459;-45
2022/06/07 09:29:52;;;;;;;15.37;12.27;;;;;;;16.11;91.96;100816.97;5013996;28;20447;-47
2022/06/07 09:32:22;;;;;;;15.07;13.63;;;;;;;16.08;92.61;100820.94;5014260;28;20428;-47
2022/06/07 09:34:57;;;;;;;15.23;13.90;;;;;;;15.87;93.52;100826.84;5014568;28;20429;-45
2022/06/07 09:37:30;;;;;;;17.63;13.93;;;;;;;15.80;94.31;100824.22;5013664;28;21047;-45
2022/06/07 09:40:28;;;;;;;12.40;11.40;;;;;;;15.69;95.17;100826.88;5014442;28;20429;-45
2022/06/07 09:43:02;;;;;;;8.80;8.10;;;;;;;15.56;94.26;100830.56;5013991;28;20443;-47
2022/06/07 09:45:35;;;;;;;6.83;6.33;;;;;;;15.32;93.95;100829.59;5014084;28;20797;-47
2022/06/07 09:48:35;;;;;;;5.00;4.60;;;;;;;15.19;94.49;100823.56;5013590;28;20467;-45
2022/06/07 09:51:12;;;;;;;3.47;3.27;;;;;;;14.98;95.05;100821.31;5014053;28;20858;-46
2022/06/07 09:53:43;;;;;;;3.50;3.20;;;;;;;14.80;95.62;100820.28;5014077;28;20441;-49
2022/06/07 09:56:21;;;;;;;3.80;3.50;;;;;;;14.60;97.10;100816.97;5014029;28;20830;-47
2022/06/07 09:59:04;;;;;;;4.43;4.13;;;;;;;14.55;97.68;100821.34;5013371;28;20460;-45
2022/06/07 10:01:39;;;;;;;3.33;3.03;;;;;;;14.56;98.45;100820.31;5014034;28;20927;-44
2022/06/07 10:04:15;;;;;;;4.20;3.90;;;;;;;14.91;98.99;100821.41;5013874;28;20441;-45
2022/06/07 10:06:47;;;;;;;5.70;5.40;;;;;;;15.39;99.27;100816.06;5013738;28;20444;-45
2022/06/07 10:09:25;;;;;;;7.30;5.70;;;;;;;16.10;98.63;100812.66;5013171;28;20567;-45
2022/06/07 10:12:04;;;;;;;7.40;6.90;;;;;;;16.78;97.07;100799.50;5013265;28;20503;-46
2022/06/07 10:14:41;;;;;;;8.00;7.50;;;;;;;17.47;93.09;100799.31;5013849;28;20934;-45
2022/06/07 10:17:34;;;;;;;7.97;7.20;;;;;;;18.11;91.53;100798.09;5013675;28;20459;-44
2022/06/07 10:20:09;;;;;;;9.00;8.40;;;;;;;18.60;88.45;100792.97;5013461;28;20439;-46
2022/06/07 10:22:51;;;;;;;9.93;9.03;;;;;;;19.23;88.11;100800.56;5013650;28;20470;-45
2022/06/07 10:25:25;;;;;;;9.07;8.40;;;;;;;19.17;82.37;100778.06;5013419;28;20443;-45
2022/06/07 10:28:03;;;;;;;9.00;8.10;;;;;;;19.02;79.64;100791.38;5012099;28;20819;-45
2022/06/07 10:30:38;;;;;;;7.80;7.30;;;;;;;18.99;79.50;100793.78;5013043;28;20472;-47
2022/06/07 10:33:39;;;;;;;5.53;5.13;;;;;;;18.47;77.96;100796.78;5013343;28;20876;-46
2022/06/07 10:36:21;;;;;;;5.10;4.80;;;;;;;18.27;81.23;100798.34;5011108;28;20833;-45
2022/06/07 10:39:02;;;;;;;5.33;5.03;;;;;;;18.18;81.07;100795.25;5012694;28;20461;-47
2022/06/07 10:41:37;;;;;;;4.47;4.07;;;;;;;18.35;79.79;100806.03;5013020;28;20425;-47
2022/06/07 10:44:17;;;;;;;4.50;4.27;;;;;;;18.21;79.71;100787.47;5013106;28;20905;-47
2022/06/07 10:46:48;;;;;;;4.33;4.03;;;;;;;18.10;81.54;100799.16;5012748;28;20464;-44
2022/06/07 10:49:25;;;;;;;2.97;2.80;;;;;;;18.48;80.10;100792.19;5012741;28;20492;-44
2022/06/07 10:54:55;;;;;;;2.50;2.30;;;;;;;18.77;74.47;100799.97;5012952;28;20440;-44
2022/06/07 10:57:30;;;;;;;3.23;2.67;;;;;;;18.77;72.88;100791.03;5012085;28;20480;-46
2022/06/07 11:00:03;;;;;;;3.13;2.83;;;;;;;18.97;71.81;100799.41;5012980;28;20428;-47
2022/06/07 11:02:43;;;;;;;3.00;2.87;;;;;;;18.93;70.91;100801.00;5012624;28;20424;-45
2022/06/07 11:10:59;;;;;;;3.70;3.37;;;;;;;18.12;74.26;100793.53;5003010;28;20499;-46
2022/06/07 11:13:34;;;;;;;3.50;3.30;;;;;;;18.42;74.90;100796.72;5012625;28;20547;-48
2022/06/07 11:16:12;;;;;;;4.80;3.90;;;;;;;18.39;72.76;100810.69;5012392;28;20455;-46
2022/06/07 11:18:42;;;;;;;2.87;2.67;;;;;;;18.32;73.40;100807.34;5012137;28;21005;-44
2022/06/07 11:21:25;;;;;;;3.17;2.97;;;;;;;18.09;71.51;100808.31;5012398;28;20511;-46
2022/06/07 11:24:00;;;;;;;3.87;2.60;;;;;;;17.76;72.77;100820.94;5012464;28;20436;-45
2022/06/07 11:26:39;;;;;;;2.67;2.47;;;;;;;17.42;74.38;100823.47;5012190;28;20480;-49
2022/06/07 11:29:09;;;;;;;2.90;2.70;;;;;;;17.09;76.38;100831.41;5011932;28;20472;-44
2022/06/07 11:31:43;;;;;;;2.60;2.50;;;;;;;16.91;79.36;100832.38;5012283;28;20842;-44
2022/06/07 11:34:21;;;;;;;2.73;2.63;;;;;;;16.77;81.77;100838.25;5004934;28;20743;-48
2022/06/07 11:36:50;;;;;;;2.90;2.70;;;;;;;16.52;84.35;100858.09;5012064;28;20455;-46
2022/06/07 11:39:29;;;;;;;3.10;2.80;;;;;;;16.29;86.32;100855.38;5011568;28;20469;-47
2022/06/07 11:41:58;;;;;;;4.20;2.90;;;;;;;16.35;87.91;100857.13;5012082;28;20799;-46
2022/06/07 11:45:16;;;;;;;5.13;2.60;;;;;;;16.18;89.77;100849.97;5012093;28;20448;-44
2022/06/07 11:48:09;;;;;;;2.30;2.10;;;;;;;16.21;89.42;100854.88;5011380;28;20508;-45
2022/06/07 11:50:41;;;;;;;1.70;1.60;;;;;;;16.25;89.19;100848.81;5011937;28;20433;-45
2022/06/07 11:53:29;;;;;;;2.60;2.40;;;;;;;16.17;89.63;100854.53;5012038;28;20481;-45
2022/06/07 11:56:17;;;;;;;2.57;2.43;;;;;;;16.22;90.49;100856.53;5012083;28;20956;-47
2022/06/07 11:59:00;;;;;;;2.80;2.60;;;;;;;16.16;90.83;100852.88;5011616;28;20468;-49